Metar Cercanos

 

LEPA - Palma De Mallorc, Spain
Distance from station: ONO 38km
Actualización: 16/10/2018 15:30
Parcialmente nuboso
Parcialmente nuboso
 Viento del O
Viento: O 13 km/h
Temperatura: 23°C
Rocío: 14°C
Humedad: 57%
Barómetro: 1013 hPa
Clouds: Parcialmente nuboso
Visibility: 10 km
Cloud details: Few Clouds 762 m
Parcialmente nuboso 1280 m
2018/10/16 13:30 LEPA 161330Z 26007KT 9999 FEW025TCU SCT042 23/14 Q1013 NOSIG
LEMH - Mahon/Menorca Is, Spain
Distance from station: ENE 105km
Actualización: 16/10/2018 15:30
Few Clouds
Few Clouds
 Viento del SSO
Viento: SSO 9 km/h
Temperatura: 22°C
Rocío: 14°C
Humedad: 61%
Barómetro: 1014 hPa
Clouds: Few Clouds
Visibility: 10 km
Cloud details: Few Clouds 914 m
2018/10/16 13:30 LEMH 161330Z 20005KT 170V240 9999 FEW030 22/14 Q1014
 
LEIB - Ibiza/Es Codola, Spain
Distance from station: OSO 165km
Actualización: 16/10/2018 15:30
Few Clouds
Few Clouds
 Viento del E
Viento: E 19 km/h
Temperatura: 23°C
Rocío: 15°C
Humedad: 61%
Barómetro: 1013 hPa
Clouds: Few Clouds
Visibility: 10 km
Cloud details: Few Clouds 762 m
2018/10/16 13:30 LEIB 161330Z 09010KT 050V140 9999 FEW025TCU 23/15 Q1013 NOSIG
LEBL - Barcelona Airpor, Spain
Distance from station: NNO 225km
Actualización: 16/10/2018 15:30
Few Clouds
Few Clouds
 Viento del E
Viento: E 11 km/h
Temperatura: 22°C
Rocío: 14°C
Humedad: 61%
Barómetro: 1015 hPa
Clouds: Few Clouds
Visibility: 10 km
Cloud details: Few Clouds 762 m
2018/10/16 13:30 LEBL 161330Z 10006KT 070V150 9999 FEW025 22/14 Q1015 NOSIG
 
LEVC - Valencia (civ/Mi, Spain
Distance from station: NO 188km
Actualización: 16/10/2018 15:30
Few Clouds
Few Clouds
 Viento del E
Viento: E 26 km/h
Temperatura: 23°C
Rocío: 16°C
Humedad: 65%
Barómetro: 1014 hPa
Clouds: Few Clouds
Visibility: 10 km
Cloud details: Few Clouds 762 m
2018/10/16 13:30 LEVC 161330Z 08014KT 050V110 9999 FEW025TCU 23/16 Q1014 TEMPO 4000 SHRA
LEGE - Gerona/Costa Bra, Spain
Distance from station: N 276km
Actualización: 16/10/2018 15:30
Parcialmente nuboso
Parcialmente nuboso
 Viento del ENE
Viento: ENE 13 km/h
Temperatura: 20°C
Rocío: 14°C
Humedad: 69%
Barómetro: 1016 hPa
Clouds: Parcialmente nuboso
Visibility: 10 km
Cloud details: Parcialmente nuboso 823 m
2018/10/16 13:30 LEGE 161330Z 06007KT 010V090 9999 SCT027 20/14 Q1016
 
LEAL - Alicante/El Alte, Spain
Distance from station: OSO 344km
Actualización: 16/10/2018 15:30
Few Clouds
Few Clouds
 Viento del E
Viento: E 17 km/h
Temperatura: 23°C
Rocío: 12°C
Humedad: 50%
Barómetro: 1013 hPa
Clouds: Few Clouds
Visibility: 10 km
Cloud details: Few Clouds 305 m
2018/10/16 13:30 LEAL 161330Z 10009KT 080V140 9999 FEW010 23/12 Q1013 NOSIG
LEAM - Almeria Airport, Spain
Distance from station: SSO 56km
Actualización: 16/10/2018 15:30
Parcialmente nuboso
Parcialmente nuboso
 Viento del NE
Viento: NE 22 km/h
Temperatura: 24°C
Rocío: 12°C
Humedad: 47%
Barómetro: 1012 hPa
Clouds: Parcialmente nuboso
Visibility: 10 km
Cloud details: Few Clouds 1219 m
Parcialmente nuboso 1829 m
2018/10/16 13:30 LEAM 161330Z 05012KT 010V080 9999 FEW040 SCT060 24/12 Q1012
 
LEZG - Zaragoza (mil/Ci, Spain
Distance from station: NO 431km
Actualización: 16/10/2018 15:30
Few Clouds
Few Clouds
 Viento del NO
Viento: NO 9 km/h
Temperatura: 22°C
Rocío: 8°C
Humedad: 41%
Barómetro: 1016 hPa
Clouds: Few Clouds
Visibility: 10 km
Cloud details: Few Clouds 1219 m
2018/10/16 13:30 LEZG 161330Z 32005KT 250V050 9999 FEW040 22/08 Q1016
LEMD - Madrid/Barajas, Spain
Distance from station: ONO 234km
Actualización: 16/10/2018 15:30
Few Clouds
Few Clouds
 Viento del varies
Viento: varies 4 km/h
Temperatura: 20°C
Rocío: 8°C
Humedad: 46%
Barómetro: 1016 hPa
Clouds: Few Clouds
Visibility: 10 km
Cloud details: Few Clouds 1219 m
2018/10/16 13:30 LEMD 161330Z VRB02KT 9999 FEW040 20/08 Q1016 NOSIG
 
LEGR - Granada Airport, Spain
Distance from station: OSO 62km
Actualización: 16/10/2018 15:30
Muy nuboso
Muy nuboso
 Viento del O
Viento: O 6 km/h
Temperatura: 19°C
Rocío: 12°C
Humedad: 64%
Barómetro: 1014 hPa
Clouds: Muy nuboso
Visibility: 10 km
Cloud details: Muy nuboso 1524 m
2018/10/16 13:30 LEGR 161330Z 28003KT 230V320 9999 BKN050 19/12 Q1014
LEMG - Malaga (civ/Mil), Spain
Distance from station: OSO 227km
Actualización: 16/10/2018 15:30
Parcialmente nuboso
Parcialmente nuboso
 Viento del O
Viento: O 24 km/h
Temperatura: 24°C
Rocío: 13°C
Humedad: 50%
Barómetro: 1012 hPa
Clouds: Parcialmente nuboso
Visibility: 10 km
Cloud details: Few Clouds 610 m
Parcialmente nuboso 1372 m
2018/10/16 13:30 LEMG 161330Z 28013KT 240V300 9999 FEW020TCU SCT045 24/13 Q1012 NOSIG
 
LEZL - Sevilla (civ/Mil, Spain
Distance from station: S 318km
Actualización: 16/10/2018 15:30
Parcialmente nuboso
Parcialmente nuboso
 Viento del N
Viento: N 7 km/h
Temperatura: 22°C
Rocío: 13°C
Humedad: 57%
Barómetro: 1014 hPa
Clouds: Parcialmente nuboso
Visibility: 10 km
Cloud details: Few Clouds 762 m
Parcialmente nuboso 1372 m
2018/10/16 13:30 LEZL 161330Z 36004KT 9999 FEW025 SCT045 22/13 Q1014 NOSIG
LEVT - Vitoria, Spain
Distance from station: NO 226km
Actualización: 16/10/2018 15:30
Few Clouds
Few Clouds
 Viento del ENE
Viento: ENE 6 km/h
Temperatura: 19°C
Rocío: 10°C
Humedad: 56%
Barómetro: 1018 hPa
Clouds: Few Clouds
Visibility: 10 km
Cloud details: Few Clouds 610 m
2018/10/16 13:30 LEVT 161330Z 07003KT 9999 FEW020 19/10 Q1018
 
LEBB - Bilbao/Sondica, Spain
Distance from station: NNO 235km
Actualización: 16/10/2018 15:30
Muy nuboso
Muy nuboso
 Viento del varies
Viento: varies 2 km/h
Temperatura: 19°C
Rocío: 14°C
Humedad: 73%
Barómetro: 1018 hPa
Clouds: Muy nuboso
Visibility: 10 km
Cloud details: Few Clouds 762 m
Muy nuboso 1372 m
2018/10/16 13:30 LEBB 161330Z VRB01KT 9999 FEW025 BKN045 19/14 Q1018 NOSIG
LESO - San Sebastian/Fu, Spain
Distance from station: N 231km
Actualización: 16/10/2018 15:30
Parcialmente nuboso
Parcialmente nuboso
 Viento del NNE
Viento: NNE 11 km/h
Temperatura: 19°C
Rocío: 15°C
Humedad: 78%
Barómetro: 1018 hPa
Clouds: Parcialmente nuboso
Visibility: 10 km
Cloud details: Few Clouds 183 m
Parcialmente nuboso 701 m
2018/10/16 13:30 LESO 161330Z 03006KT 340V070 9999 FEW006 SCT023 19/15 Q1018
 
LEVD - Valladolid(Mil/C, Spain
Distance from station: ONO 239km
Actualización: 16/10/2018 15:30
Muy nuboso
Muy nuboso
 Viento del ONO
Viento: ONO 7 km/h
Temperatura: 17°C
Rocío: 8°C
Humedad: 56%
Barómetro: 1018 hPa
Clouds: Muy nuboso
Visibility: 10 km
Cloud details: Muy nuboso 853 m
2018/10/16 13:30 LEVD 161330Z 29004KT 230V020 9999 BKN028 17/08 Q1018
LESA - Salamanca (civ/M, Spain
Distance from station: ONO 349km
Actualización: 16/10/2018 15:30
Cubierto
Cubierto
 Viento del ENE
Viento: ENE 7 km/h
Temperatura: 15°C
Rocío: 10°C
Humedad: 72%
Barómetro: 1018 hPa
Clouds: Cubierto
Visibility: 10 km
Cloud details: Cubierto 762 m
2018/10/16 13:30 LESA 161330Z 06004KT 350V110 9999 OVC025 15/10 Q1018
 
LEXJ - Santander/Paraya, Spain
Distance from station: NNO 247km
Actualización: 16/10/2018 15:30
Few Clouds
Few Clouds
 Viento del NE
Viento: NE 9 km/h
Temperatura: 18°C
Rocío: 15°C
Humedad: 83%
Barómetro: 1018 hPa
Clouds: Few Clouds
Visibility: 10 km
Cloud details: Few Clouds 1097 m
2018/10/16 13:30 LEXJ 161330Z 04005KT 340V100 9999 FEW036 18/15 Q1018
LEAS - Asturias/Aviles, Spain
Distance from station: NO 214km
Actualización: 16/10/2018 15:30
Few Clouds
Few Clouds
 Viento del varies
Viento: varies 7 km/h
Temperatura: 18°C
Rocío: 15°C
Humedad: 83%
Barómetro: 1018 hPa
Clouds: Few Clouds
Visibility: 10 km
Cloud details: Few Clouds 1067 m
2018/10/16 13:30 LEAS 161330Z VRB04KT 9999 FEW035 18/15 Q1018 NOSIG
 
LECO - La Coruna/Alvedr, Spain
Distance from station: ONO 222km
Actualización: 16/10/2018 15:30
Few Clouds
Few Clouds
 Viento del NNE
Viento: NNE 11 km/h
Temperatura: 18°C
Rocío: 12°C
Humedad: 68%
Barómetro: 1018 hPa
Clouds: Few Clouds
Visibility: 10 km
Cloud details: Few Clouds 914 m
2018/10/16 13:30 LECO 161330Z 03006KT 340V060 9999 FEW030 18/12 Q1018 NOSIG
LEVX - Vigo/Peinador, Spain
Distance from station: O 214km
Actualización: 16/10/2018 15:30
Parcialmente nuboso
Parcialmente nuboso
 Viento del N
Viento: N 6 km/h
Temperatura: 20°C
Rocío: 15°C
Humedad: 73%
Barómetro: 1017 hPa
Clouds: Parcialmente nuboso
Visibility: 10 km
Cloud details: Parcialmente nuboso 701 m
2018/10/16 13:30 LEVX 161330Z 35003KT 320V030 9999 SCT023 20/15 Q1017 NOSIG